Topcliffe, United Kingdom
Current Conditions -  °F | °C
As of 11:50 AM on Thursday 29 Jan 2015 (Local Time) from EGXZ Reporting Station
Scattered Clouds Scattered Clouds  
Wind Chill: 28°   Ceiling: Unl
Heat Index: 37°   Visibility: 6mi
Dew Point: 28°   Wind: 16mph
Humidity: 70%   Direction: 270°W
Pressure: 28.82"   Gusts: NA
Location:  54.2°N, 1.38°W
Report Text: EGXZ 291150Z 27014KT 9999 FEW028 SCT100 03/M02 Q0976 BLU
Loading
Personal Weather Stations






























Interactive Weather Map New forecast layout! Learn more

10-Day Weather Forecast

Advertisements
Track Severe Weather on mobile